Terminal Aerodrome Forecast
Issued by NWS

Home | Current Version | Previous Version | Text Only | Print | Product List | Glossary On
Versions: 1 2 3 4 5 6 7 8 9 10 11 12 13 14 15 16 17
000
FTUS46 KPDT 220000 AAA
TAFRDM
TAF AMD
KRDM 220009Z 2200/2224 17015G26KT P6SM -RA OVC070
     FM220700 23011KT P6SM -RA BKN025 OVC040
     FM221300 28012KT P6SM VCSH BKN040=

USA.gov is the U.S. government's official web portal to all federal, state and local government web resources and services.